createdAt,value
2023-03-21T00:01:54.188Z,2.42
2023-03-21T00:04:22.526Z,2.46
2023-03-21T00:06:49.758Z,2.52
2023-03-21T00:09:17.132Z,2.56
2023-03-21T00:11:44.017Z,2.56
2023-03-21T00:14:14.476Z,2.58
2023-03-21T00:16:41.850Z,2.63
2023-03-21T00:19:09.917Z,2.65
2023-03-21T00:21:49.148Z,2.66
2023-03-21T00:24:18.921Z,2.68
2023-03-21T00:26:46.148Z,2.67
2023-03-21T00:29:13.038Z,2.65
2023-03-21T00:31:39.974Z,2.67
2023-03-21T00:34:06.802Z,2.61
2023-03-21T00:36:33.661Z,2.63
2023-03-21T00:39:01.065Z,2.64
2023-03-21T00:41:41.479Z,2.64
2023-03-21T00:44:11.785Z,2.63
2023-03-21T00:46:57.410Z,2.64
2023-03-21T00:49:26.088Z,2.68
2023-03-21T00:51:55.322Z,2.68
2023-03-21T00:54:24.064Z,2.63
2023-03-21T00:56:50.899Z,2.65
2023-03-21T00:59:17.740Z,2.68
2023-03-21T01:01:46.780Z,2.70
2023-03-21T01:04:16.699Z,2.69
2023-03-21T01:06:44.472Z,2.71
2023-03-21T01:09:20.779Z,2.78
2023-03-21T01:11:48.852Z,2.71
2023-03-21T01:14:24.745Z,2.72
2023-03-21T01:16:53.242Z,2.71
2023-03-21T01:19:40.706Z,2.71
2023-03-21T01:22:12.357Z,2.63
2023-03-21T01:24:50.380Z,2.60
2023-03-21T01:27:19.082Z,2.57
2023-03-21T01:29:45.989Z,2.57
2023-03-21T01:32:12.722Z,2.56
2023-03-21T01:34:39.459Z,2.51
2023-03-21T01:37:06.345Z,2.54
2023-03-21T01:39:35.034Z,2.53
2023-03-21T01:42:01.858Z,2.55
2023-03-21T01:44:29.043Z,2.56
2023-03-21T01:47:12.580Z,2.56
2023-03-21T01:49:46.257Z,2.60
2023-03-21T01:52:29.850Z,2.63
2023-03-21T01:55:02.491Z,2.62
2023-03-21T01:57:51.921Z,2.70
2023-03-21T02:00:25.077Z,2.68
2023-03-21T02:02:58.036Z,2.70
2023-03-21T02:05:35.328Z,2.73
2023-03-21T02:08:02.617Z,2.74
2023-03-21T02:10:32.331Z,2.76
2023-03-21T02:13:09.381Z,2.79
2023-03-21T02:15:39.202Z,2.77
2023-03-21T02:18:14.370Z,2.77
2023-03-21T02:21:16.694Z,2.86
2023-03-21T02:23:58.639Z,2.91
2023-03-21T02:26:42.035Z,2.83
2023-03-21T02:29:48.463Z,2.85
2023-03-21T02:32:36.677Z,2.71
2023-03-21T02:35:34.049Z,2.65
2023-03-21T02:38:08.376Z,2.57
2023-03-21T02:41:00.411Z,2.64
2023-03-21T02:43:41.007Z,2.60
2023-03-21T02:46:17.303Z,2.60
2023-03-21T02:49:17.177Z,2.62
2023-03-21T02:51:46.621Z,2.58
2023-03-21T02:54:32.332Z,2.59
2023-03-21T02:57:04.489Z,2.57
2023-03-21T02:59:34.028Z,2.57
2023-03-21T03:02:03.082Z,2.56
2023-03-21T03:04:29.981Z,2.58
2023-03-21T03:07:03.292Z,2.59
2023-03-21T03:10:03.440Z,2.64
2023-03-21T03:12:43.139Z,2.58
2023-03-21T03:15:22.064Z,2.57
2023-03-21T03:17:48.810Z,2.44
2023-03-21T03:20:27.449Z,2.37
2023-03-21T03:23:20.254Z,2.41
2023-03-21T03:25:49.914Z,2.39
2023-03-21T03:28:23.486Z,2.35
2023-03-21T03:31:07.619Z,2.37
2023-03-21T03:33:39.849Z,2.42
2023-03-21T03:36:18.861Z,2.42
2023-03-21T03:38:57.427Z,2.45
2023-03-21T03:41:26.760Z,2.46
2023-03-21T03:43:58.001Z,2.47
2023-03-21T03:46:33.500Z,2.49
2023-03-21T03:49:15.799Z,2.55
2023-03-21T03:51:42.341Z,2.58
2023-03-21T03:54:17.639Z,2.55
2023-03-21T03:56:45.312Z,2.51
2023-03-21T03:59:12.181Z,2.54
2023-03-21T04:01:39.036Z,2.52
2023-03-21T04:04:13.282Z,2.48
2023-03-21T04:06:41.467Z,2.48
2023-03-21T04:09:19.229Z,2.49
2023-03-21T04:11:47.356Z,2.47
2023-03-21T04:14:14.319Z,2.42
2023-03-21T04:16:41.168Z,2.39
2023-03-21T04:19:07.964Z,2.35
2023-03-21T04:21:34.805Z,2.33
2023-03-21T04:24:01.698Z,2.30
2023-03-21T04:26:33.053Z,2.25
2023-03-21T04:29:03.533Z,2.26
2023-03-21T04:31:33.905Z,2.29
2023-03-21T04:34:02.634Z,2.31
2023-03-21T04:36:38.994Z,2.33
2023-03-21T04:39:12.356Z,2.36
2023-03-21T04:41:44.164Z,2.36
2023-03-21T04:44:12.216Z,2.38
2023-03-21T04:46:39.796Z,2.42
2023-03-21T04:49:07.129Z,2.45
2023-03-21T04:51:34.431Z,2.44
2023-03-21T04:54:01.166Z,2.46
2023-03-21T04:56:36.417Z,2.55
2023-03-21T04:59:10.590Z,2.62
2023-03-21T05:01:37.364Z,2.60
2023-03-21T05:04:04.923Z,2.61
2023-03-21T05:06:32.149Z,2.61
2023-03-21T05:09:01.492Z,2.61
2023-03-21T05:11:30.856Z,2.66
2023-03-21T05:13:58.839Z,2.62
2023-03-21T05:16:30.495Z,2.66
2023-03-21T05:19:04.100Z,2.75
2023-03-21T05:21:34.258Z,2.73
2023-03-21T05:24:03.572Z,2.77
2023-03-21T05:26:30.405Z,2.81
2023-03-21T05:28:57.224Z,2.83
2023-03-21T05:31:24.045Z,2.91
2023-03-21T05:33:51.128Z,2.93
2023-03-21T05:36:17.910Z,2.90
2023-03-21T05:38:47.870Z,2.92
2023-03-21T05:41:18.169Z,2.92
2023-03-21T05:43:45.888Z,2.92
2023-03-21T05:46:13.285Z,2.95
2023-03-21T05:48:40.145Z,2.99
2023-03-21T05:51:07.007Z,3.05
2023-03-21T05:53:33.958Z,3.00
2023-03-21T05:56:00.796Z,3.00
2023-03-21T05:58:27.740Z,3.02
2023-03-21T06:00:54.834Z,3.02
2023-03-21T06:03:21.808Z,3.06
2023-03-21T06:05:48.636Z,3.12
2023-03-21T06:08:15.516Z,3.10
2023-03-21T06:10:42.374Z,3.11
2023-03-21T06:13:09.209Z,3.10
2023-03-21T06:15:36.250Z,3.12
2023-03-21T06:18:03.157Z,3.12
2023-03-21T06:20:30.243Z,3.08
2023-03-21T06:22:57.152Z,3.05
2023-03-21T06:25:24.113Z,3.07
2023-03-21T06:27:50.895Z,3.06
2023-03-21T06:30:18.435Z,3.11
2023-03-21T06:32:45.348Z,3.18
2023-03-21T06:35:12.256Z,3.23
2023-03-21T06:37:39.057Z,3.34
2023-03-21T06:40:09.072Z,3.42
2023-03-21T06:42:36.465Z,3.48
2023-03-21T06:45:03.643Z,3.51
2023-03-21T06:47:30.652Z,3.51
2023-03-21T06:49:57.513Z,3.52
2023-03-21T06:52:24.351Z,3.47
2023-03-21T06:54:51.212Z,3.46
2023-03-21T06:57:19.968Z,3.46
2023-03-21T06:59:47.589Z,3.48
2023-03-21T07:02:14.759Z,3.57
2023-03-21T07:04:41.606Z,3.67
2023-03-21T07:07:08.567Z,3.82
2023-03-21T07:09:35.370Z,3.98
2023-03-21T07:12:02.185Z,4.19
2023-03-21T07:14:30.004Z,4.31
2023-03-21T07:16:56.950Z,4.28
2023-03-21T07:19:23.660Z,4.24
2023-03-21T07:21:50.950Z,4.29
2023-03-21T07:24:17.692Z,4.23
2023-03-21T07:26:44.533Z,4.31
2023-03-21T07:29:11.254Z,4.30
2023-03-21T07:31:39.936Z,4.25
2023-03-21T07:34:06.882Z,4.26
2023-03-21T07:36:33.666Z,4.24
2023-03-21T07:39:00.703Z,4.31
2023-03-21T07:41:27.454Z,4.33
2023-03-21T07:43:54.213Z,4.33
2023-03-21T07:46:21.199Z,4.32
2023-03-21T07:48:48.044Z,4.18
2023-03-21T07:51:14.833Z,4.16
2023-03-21T07:53:42.049Z,4.19
2023-03-21T07:56:09.168Z,4.11
2023-03-21T07:58:35.944Z,4.16
2023-03-21T08:01:03.331Z,4.21
2023-03-21T08:03:31.591Z,4.29
2023-03-21T08:06:01.387Z,4.29
2023-03-21T08:08:28.324Z,4.36
2023-03-21T08:10:55.482Z,4.42
2023-03-21T08:13:23.038Z,4.42
2023-03-21T08:15:49.880Z,4.30
2023-03-21T08:18:16.697Z,4.40
2023-03-21T08:20:43.468Z,4.31
2023-03-21T08:23:10.374Z,4.43
2023-03-21T08:25:37.704Z,4.56
2023-03-21T08:28:04.688Z,4.59
2023-03-21T08:30:31.532Z,4.67
2023-03-21T08:33:01.381Z,4.72
2023-03-21T08:35:29.591Z,4.71
2023-03-21T08:37:56.336Z,4.74
2023-03-21T08:40:23.195Z,4.72
2023-03-21T08:42:49.994Z,4.80
2023-03-21T08:45:18.280Z,4.89
2023-03-21T08:47:46.191Z,4.90
2023-03-21T08:50:19.065Z,4.96
2023-03-21T08:52:46.723Z,5.04
2023-03-21T08:55:14.988Z,5.15
2023-03-21T08:57:42.670Z,5.06
2023-03-21T09:00:14.057Z,4.99
2023-03-21T09:02:42.234Z,4.87
2023-03-21T09:05:11.944Z,4.85
2023-03-21T09:07:40.525Z,4.90
2023-03-21T09:10:26.956Z,5.02
2023-03-21T09:12:55.456Z,4.99
2023-03-21T09:15:24.977Z,4.94
2023-03-21T09:17:54.184Z,4.90
2023-03-21T09:20:26.319Z,4.93
2023-03-21T09:22:53.860Z,5.01
2023-03-21T09:25:21.596Z,5.08
2023-03-21T09:27:48.747Z,5.00
2023-03-21T09:30:18.835Z,5.08
2023-03-21T09:32:48.692Z,5.03
2023-03-21T09:35:19.814Z,5.11
2023-03-21T09:37:47.843Z,5.16
2023-03-21T09:40:20.023Z,5.22
2023-03-21T09:42:46.808Z,5.21
2023-03-21T09:45:52.598Z,5.31
2023-03-21T09:48:57.460Z,5.32
2023-03-21T09:51:28.792Z,5.36
2023-03-21T09:53:57.707Z,5.40
2023-03-21T09:56:26.180Z,5.50
2023-03-21T09:58:59.482Z,5.66
2023-03-21T10:01:34.343Z,5.78
2023-03-21T10:04:05.896Z,5.96
2023-03-21T10:06:36.005Z,6.09
2023-03-21T10:09:07.668Z,6.22
2023-03-21T10:12:01.798Z,6.40
2023-03-21T10:14:33.188Z,6.43
2023-03-21T10:17:10.644Z,6.57
2023-03-21T10:19:37.442Z,6.72
2023-03-21T10:22:04.537Z,6.83
2023-03-21T10:24:34.040Z,6.91
2023-03-21T10:27:02.770Z,7.02
2023-03-21T10:29:42.324Z,7.13
2023-03-21T10:32:17.484Z,7.12
2023-03-21T10:37:24.982Z,7.15
2023-03-21T10:39:55.924Z,7.21
2023-03-21T10:42:29.678Z,7.17
2023-03-21T10:44:58.005Z,7.21
2023-03-21T10:47:33.956Z,7.31
2023-03-21T10:50:12.043Z,7.48
2023-03-21T10:52:47.985Z,7.51
2023-03-21T10:55:22.846Z,7.56
2023-03-21T10:57:57.683Z,7.84
2023-03-21T11:00:39.435Z,8.40
2023-03-21T11:03:08.372Z,9.20
2023-03-21T11:05:42.082Z,9.98
2023-03-21T11:08:16.077Z,10.44
2023-03-21T11:10:52.225Z,11.17
2023-03-21T11:13:25.746Z,11.35
2023-03-21T11:15:58.544Z,11.28
2023-03-21T11:18:27.788Z,11.31
2023-03-21T11:20:58.023Z,10.34
2023-03-21T11:23:29.701Z,9.77
2023-03-21T11:25:59.112Z,9.40
2023-03-21T11:28:33.461Z,9.64
2023-03-21T11:31:05.248Z,10.50
2023-03-21T11:33:36.681Z,11.47
2023-03-21T11:36:18.918Z,12.48
2023-03-21T11:38:53.619Z,12.62
2023-03-21T11:41:31.099Z,12.97
2023-03-21T11:43:59.619Z,12.63
2023-03-21T11:46:31.818Z,12.66
2023-03-21T11:49:00.089Z,12.49
2023-03-21T11:51:54.187Z,12.92
2023-03-21T11:54:28.311Z,12.33
2023-03-21T11:57:14.511Z,12.49
2023-03-21T12:00:14.427Z,13.07
2023-03-21T12:03:06.234Z,13.38
2023-03-21T12:05:41.841Z,13.16
2023-03-21T12:08:27.184Z,12.67
2023-03-21T12:11:13.359Z,12.30
2023-03-21T12:14:07.271Z,12.87
2023-03-21T12:16:49.122Z,13.11
2023-03-21T12:19:27.683Z,12.84
2023-03-21T12:22:24.984Z,13.18
2023-03-21T12:24:55.562Z,13.23
2023-03-21T12:27:37.614Z,12.79
2023-03-21T12:30:24.678Z,12.94
2023-03-21T12:33:09.506Z,13.08
2023-03-21T12:36:04.592Z,13.01
2023-03-21T12:38:41.574Z,13.22
2023-03-21T12:41:25.525Z,13.56
2023-03-21T12:44:18.600Z,13.93
2023-03-21T12:46:48.339Z,14.37
2023-03-21T12:49:32.433Z,14.88
2023-03-21T12:52:08.124Z,14.45
2023-03-21T12:54:38.742Z,14.04
2023-03-21T12:57:15.634Z,14.21
2023-03-21T12:59:48.406Z,13.81
2023-03-21T13:02:22.666Z,14.18
2023-03-21T13:05:00.162Z,13.54
2023-03-21T13:07:32.433Z,12.57
2023-03-21T13:10:02.244Z,11.98
2023-03-21T13:12:56.235Z,12.13
2023-03-21T13:15:38.034Z,12.27
2023-03-21T13:18:23.086Z,13.04
2023-03-21T13:20:57.034Z,13.11
2023-03-21T13:23:26.174Z,13.36
2023-03-21T13:25:55.835Z,13.77
2023-03-21T13:28:27.800Z,13.89
2023-03-21T13:31:14.442Z,14.49
2023-03-21T13:33:45.052Z,14.20
2023-03-21T13:36:39.662Z,14.54
2023-03-21T13:39:06.982Z,13.98
2023-03-21T13:41:40.723Z,14.22
2023-03-21T13:44:25.548Z,14.04
2023-03-21T13:47:01.570Z,13.84
2023-03-21T13:49:34.655Z,13.46
2023-03-21T13:52:23.774Z,13.17
2023-03-21T13:54:56.102Z,13.53
2023-03-21T13:57:38.741Z,13.30
2023-03-21T14:00:17.853Z,13.52
2023-03-21T14:03:00.364Z,12.90
2023-03-21T14:05:28.858Z,12.46
2023-03-21T14:08:12.333Z,12.21
2023-03-21T14:10:49.253Z,12.06
2023-03-21T14:13:19.514Z,11.99
2023-03-21T14:15:57.823Z,12.46
2023-03-21T14:18:41.214Z,12.62
2023-03-21T14:21:24.264Z,11.93
2023-03-21T14:24:05.623Z,11.19
2023-03-21T14:26:36.315Z,10.48
2023-03-21T14:29:09.666Z,10.19
2023-03-21T14:31:47.439Z,9.87
2023-03-21T14:34:16.908Z,9.67
2023-03-21T14:36:51.673Z,9.48
2023-03-21T14:39:27.382Z,9.55
2023-03-21T14:41:55.458Z,9.58
2023-03-21T14:44:28.086Z,9.43
2023-03-21T14:47:02.087Z,9.48
2023-03-21T14:49:31.210Z,9.12
2023-03-21T14:52:08.053Z,9.05
2023-03-21T14:54:35.001Z,8.78
2023-03-21T14:57:05.284Z,8.66
2023-03-21T14:59:38.550Z,8.73
2023-03-21T15:02:16.966Z,8.64
2023-03-21T15:05:06.183Z,8.63
2023-03-21T15:07:36.286Z,8.49
2023-03-21T15:10:14.046Z,8.44
2023-03-21T15:12:51.152Z,8.41
2023-03-21T15:15:18.907Z,8.33
2023-03-21T15:17:46.559Z,8.27
2023-03-21T15:20:16.906Z,8.25
2023-03-21T15:22:51.660Z,8.18
2023-03-21T15:25:25.918Z,8.13
2023-03-21T15:27:52.877Z,8.01
2023-03-21T15:30:28.041Z,8.11
2023-03-21T15:32:59.450Z,8.10
2023-03-21T15:35:38.793Z,8.12
2023-03-21T15:38:06.787Z,7.95
2023-03-21T15:40:35.735Z,7.98
2023-03-21T15:43:15.985Z,7.94
2023-03-21T15:45:49.240Z,7.93
2023-03-21T15:48:16.631Z,7.83
2023-03-21T15:51:02.320Z,7.90
2023-03-21T15:53:36.231Z,7.88
2023-03-21T15:56:06.149Z,7.81
2023-03-21T15:58:41.401Z,7.76
2023-03-21T16:01:18.055Z,7.72
2023-03-21T16:04:07.440Z,7.71
2023-03-21T16:06:37.037Z,7.63
2023-03-21T16:09:23.527Z,7.64
2023-03-21T16:11:54.254Z,7.59
2023-03-21T16:14:22.480Z,7.60
2023-03-21T16:16:50.300Z,7.59
2023-03-21T16:19:17.326Z,7.57
2023-03-21T16:21:44.082Z,7.57
2023-03-21T16:24:12.608Z,7.54
2023-03-21T16:26:46.063Z,7.56
2023-03-21T16:29:15.598Z,7.55
2023-03-21T16:31:43.081Z,7.54
2023-03-21T16:34:10.797Z,7.55
2023-03-21T16:36:40.370Z,7.56
2023-03-21T16:39:19.529Z,7.61
2023-03-21T16:41:47.307Z,7.51
2023-03-21T16:44:14.610Z,7.44
2023-03-21T16:46:41.404Z,7.41
2023-03-21T16:49:18.907Z,7.38
2023-03-21T16:51:45.742Z,7.34
2023-03-21T16:54:12.553Z,7.29
2023-03-21T16:56:43.242Z,7.31
2023-03-21T16:59:13.304Z,7.30
2023-03-21T17:01:41.481Z,7.29
2023-03-21T17:04:09.145Z,7.29
2023-03-21T17:06:44.739Z,7.31
2023-03-21T17:09:14.269Z,7.27
2023-03-21T17:11:44.368Z,7.26
2023-03-21T17:14:12.943Z,7.25
2023-03-21T17:16:42.816Z,7.27
2023-03-21T17:19:15.065Z,7.31
2023-03-21T17:21:41.810Z,7.30
2023-03-21T17:24:08.751Z,7.32
2023-03-21T17:26:36.514Z,7.33
2023-03-21T17:29:04.080Z,7.31
2023-03-21T17:31:36.872Z,7.28
2023-03-21T17:34:04.612Z,7.20
2023-03-21T17:36:37.319Z,7.19
2023-03-21T17:39:09.658Z,7.18
2023-03-21T17:41:36.513Z,7.10
2023-03-21T17:44:03.381Z,7.06
2023-03-21T17:46:36.842Z,7.08
2023-03-21T17:49:04.387Z,7.02
2023-03-21T17:51:33.073Z,6.94
2023-03-21T17:54:00.370Z,6.84
2023-03-21T17:56:32.676Z,6.77
2023-03-21T17:59:02.051Z,6.70
2023-03-21T18:01:30.935Z,6.51
2023-03-21T18:03:58.912Z,6.40
2023-03-21T18:06:26.823Z,6.24
2023-03-21T18:08:54.639Z,6.11
2023-03-21T18:11:23.171Z,6.04
2023-03-21T18:13:50.375Z,5.93
2023-03-21T18:16:22.961Z,5.85
2023-03-21T18:18:50.968Z,5.75
2023-03-21T18:21:20.243Z,5.72
2023-03-21T18:23:47.603Z,5.65
2023-03-21T18:26:17.696Z,5.63
2023-03-21T18:28:45.500Z,5.58
2023-03-21T18:31:20.444Z,5.57
2023-03-21T18:33:49.182Z,5.53
2023-03-21T18:36:24.725Z,5.53
2023-03-21T18:38:52.167Z,5.48
2023-03-21T18:41:19.833Z,5.43
2023-03-21T18:44:17.535Z,5.43
2023-03-21T18:46:33.937Z,5.41
2023-03-21T18:49:19.836Z,5.38
2023-03-21T18:51:47.997Z,5.32
2023-03-21T18:54:14.903Z,5.26
2023-03-21T18:59:38.889Z,5.23
2023-03-21T19:02:07.599Z,5.13
2023-03-21T19:04:34.473Z,5.12
2023-03-21T19:07:01.346Z,5.08
2023-03-21T19:09:31.811Z,5.08
2023-03-21T19:11:59.931Z,5.02
2023-03-21T19:14:26.978Z,4.98
2023-03-21T19:17:43.620Z,4.96
2023-03-21T19:19:43.358Z,4.95
2023-03-21T19:22:10.568Z,4.93
2023-03-21T19:24:39.713Z,4.90
2023-03-21T19:27:07.013Z,4.84
2023-03-21T19:29:34.006Z,4.87
2023-03-21T19:32:01.479Z,4.87
2023-03-21T19:34:29.398Z,4.86
2023-03-21T19:36:57.543Z,4.82
2023-03-21T19:39:25.132Z,4.78
2023-03-21T19:41:55.379Z,4.78
2023-03-21T19:44:30.926Z,4.76
2023-03-21T19:46:57.910Z,4.76
2023-03-21T19:49:34.662Z,4.74
2023-03-21T19:52:03.688Z,4.73
2023-03-21T19:54:30.498Z,4.73
2023-03-21T19:56:57.364Z,4.71
2023-03-21T19:59:24.104Z,4.72
2023-03-21T20:01:56.406Z,4.71
2023-03-21T20:04:25.639Z,4.68
2023-03-21T20:06:57.078Z,4.69
2023-03-21T20:09:50.158Z,4.67
2023-03-21T20:12:11.890Z,4.67
2023-03-21T20:14:38.853Z,4.63
2023-03-21T20:17:06.008Z,4.68
2023-03-21T20:19:32.853Z,4.63
2023-03-21T20:22:02.604Z,4.61
2023-03-21T20:24:30.426Z,4.61
2023-03-21T20:26:57.752Z,4.55
2023-03-21T20:32:11.389Z,4.51
2023-03-21T20:34:38.339Z,4.51
2023-03-21T20:37:06.307Z,4.47
2023-03-21T20:39:33.511Z,4.43
2023-03-21T20:42:00.403Z,4.40
2023-03-21T20:44:48.504Z,4.45
2023-03-21T20:47:14.920Z,4.46
2023-03-21T20:49:41.727Z,4.44
2023-03-21T20:52:54.470Z,4.40
2023-03-21T20:54:59.366Z,4.37
2023-03-21T20:57:30.183Z,4.35
2023-03-21T20:59:57.619Z,4.40
2023-03-21T21:02:24.851Z,4.38
2023-03-21T21:05:23.676Z,4.39
2023-03-21T21:07:41.841Z,4.35
2023-03-21T21:10:14.289Z,4.36
2023-03-21T21:12:45.120Z,4.31
2023-03-21T21:15:14.299Z,4.30
2023-03-21T21:18:04.829Z,4.31
2023-03-21T21:20:28.307Z,4.28
2023-03-21T21:23:00.549Z,4.27
2023-03-21T21:25:30.522Z,4.24
2023-03-21T21:27:57.497Z,4.26
2023-03-21T21:30:24.808Z,4.26
2023-03-21T21:32:51.598Z,4.24
2023-03-21T21:35:19.685Z,4.26
2023-03-21T21:37:47.083Z,4.25
2023-03-21T21:40:20.278Z,4.23
2023-03-21T21:42:47.213Z,4.25
2023-03-21T21:45:14.557Z,4.23
2023-03-21T21:47:43.900Z,4.29
2023-03-21T21:50:11.238Z,4.26
2023-03-21T21:52:37.967Z,4.24
2023-03-21T21:55:06.528Z,4.23
2023-03-21T21:57:34.548Z,4.23
2023-03-21T22:00:06.641Z,4.21
2023-03-21T22:02:33.767Z,4.22
2023-03-21T22:05:00.698Z,4.19
2023-03-21T22:07:28.982Z,4.19
2023-03-21T22:09:56.176Z,4.18
2023-03-21T22:12:23.420Z,4.24
2023-03-21T22:14:50.334Z,4.26
2023-03-21T22:17:17.175Z,4.24
2023-03-21T22:19:52.673Z,4.22
2023-03-21T22:22:26.189Z,4.21
2023-03-21T22:24:56.329Z,4.22
2023-03-21T22:27:23.154Z,4.16
2023-03-21T22:29:49.925Z,4.15
2023-03-21T22:32:16.798Z,4.15
2023-03-21T22:34:43.527Z,4.14
2023-03-21T22:37:10.372Z,4.14
2023-03-21T22:39:37.542Z,4.12
2023-03-21T22:42:04.998Z,4.15
2023-03-21T22:44:35.658Z,4.12
2023-03-21T22:47:05.687Z,4.16
2023-03-21T22:49:33.021Z,4.18
2023-03-21T22:52:01.119Z,4.16
2023-03-21T22:54:27.916Z,4.15
2023-03-21T22:56:54.734Z,4.12
2023-03-21T22:59:21.614Z,4.15
2023-03-21T23:01:49.281Z,4.13
2023-03-21T23:04:16.371Z,4.11
2023-03-21T23:06:43.849Z,4.15
2023-03-21T23:09:10.935Z,4.11
2023-03-21T23:11:38.614Z,4.11
2023-03-21T23:14:08.451Z,4.12
2023-03-21T23:16:38.485Z,4.10
2023-03-21T23:19:06.230Z,4.07
2023-03-21T23:21:36.479Z,4.04
2023-03-21T23:24:03.339Z,4.07
2023-03-21T23:26:30.672Z,4.08
2023-03-21T23:28:57.634Z,4.08
2023-03-21T23:31:26.709Z,4.06
2023-03-21T23:33:54.343Z,4.05
2023-03-21T23:36:21.779Z,4.01
2023-03-21T23:38:48.699Z,4.04
2023-03-21T23:41:19.267Z,4.05
2023-03-21T23:43:46.928Z,4.03
2023-03-21T23:46:15.519Z,3.97
2023-03-21T23:48:43.376Z,3.97
2023-03-21T23:51:15.967Z,3.96
2023-03-21T23:53:44.446Z,3.99
2023-03-21T23:56:23.650Z,4.02
2023-03-21T23:58:51.336Z,3.96
